Strona główna
METAR-TAF:

METAR-TAF

Lotnisko :

Port lotniczy Rarotonga

Rarotonga, Wyspy Cooka

Szerokość geograficzna: 21-12S, Długość geograficzna: 159-49W, wysokość: 7 m

Aktualna obserwacja pogody

Raport powstał 36 minut temu, godzina 12:00 UTC
Wiatr 8 kt od północny wschód
Temperatura 24°C
Wilgotność 83%
Ciśnienie 1016 hPa
Widzialność 10 km lub więcej
Rozproszone chmury na wysokości 1600 ft
Przerywane chmury na wysokości 10000 ft

METAR: NCRG 181200Z 05008KT 9999 SCT016 BKN100 24/21 Q1016

czas: 02:36 (12:36 UTC)

Prognoza

Raport powstał 1 godzina i 24 minut temu, godzina 11:12 UTC
Prognoza ważna od 18 godzina 12 UTC do 19 godzina 12 UTC
Wiatr 10 kt od północny wschód
Widzialność 10 km lub więcej
Rozproszone chmury na wysokości 1800 ft
Przerywane chmury na wysokości 10000 ft

TAF: NCRG 181112Z 1812/1912 05010KT 9999 SCT018 BKN100

Obserwacja i prognoza pogody dla ponad 4000 lotnisk (raport METAR i TAF).

Dostępne stacje oznaczono żółtymi i czerwonymi punktami na mapie.

Najedź kursorem aby zobaczyć nazwę stacji.

Kliknij aby zobaczyć obserwacje i prognozy pogody.

Aby zmienić mapę: kliknij na zielony przycisk z czarnym krzyżykiem, aby powiększyć; na zielony przycisk z myślnikiem, aby pomniejszyć; na zielone strzałki, aby przejść do map sąsiednich.


METAR-TAF: